createdAt,value
2023-02-17T00:01:52.435Z,90.50
2023-02-17T00:04:18.828Z,87.80
2023-02-17T00:06:45.315Z,98.53
2023-02-17T00:09:11.738Z,101.60
2023-02-17T00:11:38.186Z,106.82
2023-02-17T00:14:04.721Z,101.32
2023-02-17T00:16:31.265Z,102.35
2023-02-17T00:18:58.739Z,113.30
2023-02-17T00:21:26.149Z,110.00
2023-02-17T00:23:53.090Z,104.22
2023-02-17T00:26:20.502Z,107.82
2023-02-17T00:28:47.446Z,103.63
2023-02-17T00:31:15.436Z,103.68
2023-02-17T00:33:42.005Z,98.88
2023-02-17T00:36:11.072Z,93.72
2023-02-17T00:38:37.583Z,92.68
2023-02-17T00:41:04.132Z,89.90
2023-02-17T00:43:30.530Z,87.25
2023-02-17T00:45:57.133Z,86.15
2023-02-17T00:48:23.835Z,81.85
2023-02-17T00:50:50.420Z,84.10
2023-02-17T00:53:16.919Z,78.05
2023-02-17T00:55:43.379Z,80.55
2023-02-17T00:58:09.874Z,77.97
2023-02-17T01:00:36.437Z,72.57
2023-02-17T01:03:02.834Z,76.13
2023-02-17T01:05:29.430Z,74.30
2023-02-17T01:07:56.098Z,78.70
2023-02-17T01:10:22.536Z,75.43
2023-02-17T01:12:49.029Z,72.65
2023-02-17T01:15:15.573Z,70.07
2023-02-17T01:17:42.050Z,76.22
2023-02-17T01:20:08.681Z,79.82
2023-02-17T01:22:35.164Z,84.88
2023-02-17T01:25:01.567Z,86.35
2023-02-17T01:27:28.221Z,84.30
2023-02-17T01:29:54.740Z,82.32
2023-02-17T01:32:21.205Z,83.85
2023-02-17T01:34:49.056Z,82.82
2023-02-17T01:37:15.527Z,88.68
2023-02-17T01:39:41.949Z,78.80
2023-02-17T01:42:14.879Z,89.20
2023-02-17T01:44:59.732Z,74.60
2023-02-17T01:47:26.187Z,77.88
2023-02-17T01:49:52.657Z,81.60
2023-02-17T01:52:25.483Z,76.30
2023-02-17T01:54:56.921Z,74.68
2023-02-17T01:57:24.915Z,80.47
2023-02-17T01:59:51.802Z,85.63
2023-02-17T02:02:18.580Z,84.20
2023-02-17T02:04:46.886Z,85.03
2023-02-17T02:07:19.082Z,82.63
2023-02-17T02:09:52.965Z,84.60
2023-02-17T02:12:38.687Z,80.57
2023-02-17T02:15:07.900Z,82.93
2023-02-17T02:17:34.317Z,76.43
2023-02-17T02:20:03.828Z,78.75
2023-02-17T02:22:33.415Z,85.03
2023-02-17T02:25:08.732Z,77.88
2023-02-17T02:27:35.545Z,81.20
2023-02-17T02:30:20.804Z,85.75
2023-02-17T02:32:49.813Z,89.78
2023-02-17T02:35:34.931Z,90.70
2023-02-17T02:38:06.891Z,87.22
2023-02-17T02:40:36.636Z,87.95
2023-02-17T02:43:04.076Z,92.75
2023-02-17T02:45:30.708Z,92.40
2023-02-17T02:47:57.870Z,79.82
2023-02-17T02:50:30.277Z,79.70
2023-02-17T02:53:26.045Z,84.70
2023-02-17T02:56:10.616Z,85.70
2023-02-17T02:58:52.006Z,86.00
2023-02-17T03:01:21.236Z,86.82
2023-02-17T03:03:53.650Z,89.57
2023-02-17T03:06:22.763Z,85.22
2023-02-17T03:08:52.644Z,84.97
2023-02-17T03:11:32.589Z,88.55
2023-02-17T03:14:04.817Z,87.25
2023-02-17T03:16:31.315Z,83.30
2023-02-17T03:18:57.888Z,80.32
2023-02-17T03:21:26.124Z,84.40
2023-02-17T03:23:52.603Z,82.72
2023-02-17T03:26:19.086Z,82.35
2023-02-17T03:28:45.578Z,75.57
2023-02-17T03:31:12.028Z,87.18
2023-02-17T03:33:38.515Z,80.07
2023-02-17T03:36:05.419Z,77.10
2023-02-17T03:38:32.016Z,71.63
2023-02-17T03:40:58.505Z,73.53
2023-02-17T03:43:25.002Z,78.80
2023-02-17T03:45:51.446Z,77.20
2023-02-17T03:48:17.928Z,74.78
2023-02-17T03:50:44.390Z,78.47
2023-02-17T03:53:11.393Z,85.57
2023-02-17T03:55:37.947Z,88.85
2023-02-17T03:58:04.476Z,82.53
2023-02-17T04:00:30.966Z,90.32
2023-02-17T04:02:57.689Z,81.38
2023-02-17T04:05:24.446Z,86.13
2023-02-17T04:07:51.195Z,85.70
2023-02-17T04:10:17.831Z,86.88
2023-02-17T04:12:44.349Z,83.70
2023-02-17T04:15:10.921Z,87.18
2023-02-17T04:17:38.083Z,81.07
2023-02-17T04:20:05.459Z,84.43
2023-02-17T04:22:32.066Z,85.25
2023-02-17T04:24:58.605Z,76.68
2023-02-17T04:27:25.567Z,80.72
2023-02-17T04:29:52.162Z,77.38
2023-02-17T04:32:18.779Z,78.30
2023-02-17T04:34:45.241Z,75.85
2023-02-17T04:37:11.733Z,75.80
2023-02-17T04:39:38.133Z,76.22
2023-02-17T04:42:04.706Z,79.70
2023-02-17T04:44:31.304Z,79.15
2023-02-17T04:46:57.821Z,84.93
2023-02-17T04:49:24.326Z,76.00
2023-02-17T04:51:50.865Z,82.82
2023-02-17T04:54:17.477Z,71.45
2023-02-17T04:56:43.916Z,69.97
2023-02-17T04:59:10.658Z,73.43
2023-02-17T05:01:37.244Z,76.07
2023-02-17T05:04:03.842Z,75.47
2023-02-17T05:06:30.309Z,68.90
2023-02-17T05:08:56.823Z,70.03
2023-02-17T05:11:23.278Z,67.32
2023-02-17T05:13:49.750Z,66.25
2023-02-17T05:16:16.186Z,62.08
2023-02-17T05:18:42.626Z,67.03
2023-02-17T05:21:09.128Z,65.65
2023-02-17T05:23:41.218Z,70.88
2023-02-17T05:26:08.870Z,75.00
2023-02-17T05:28:35.904Z,66.65
2023-02-17T05:31:02.900Z,66.80
2023-02-17T05:33:29.542Z,64.32
2023-02-17T05:35:56.313Z,63.28
2023-02-17T05:38:22.804Z,70.38
2023-02-17T05:40:50.254Z,70.82
2023-02-17T05:43:16.741Z,72.47
2023-02-17T05:45:43.133Z,67.72
2023-02-17T05:48:09.532Z,66.75
2023-02-17T05:50:35.952Z,60.78
2023-02-17T05:53:02.611Z,64.28
2023-02-17T05:55:29.096Z,76.32
2023-02-17T05:57:55.494Z,98.28
2023-02-17T06:00:22.006Z,108.63
2023-02-17T06:02:48.479Z,93.40
2023-02-17T06:05:15.444Z,90.82
2023-02-17T06:07:42.027Z,93.43
2023-02-17T06:10:09.187Z,102.00
2023-02-17T06:12:35.786Z,97.05
2023-02-17T06:15:02.552Z,94.63
2023-02-17T06:17:29.230Z,95.45
2023-02-17T06:19:55.724Z,97.07
2023-02-17T06:22:22.170Z,90.25
2023-02-17T06:24:48.716Z,83.78
2023-02-17T06:27:15.187Z,85.78
2023-02-17T06:29:41.721Z,83.80
2023-02-17T06:32:08.346Z,80.93
2023-02-17T06:34:34.894Z,79.50
2023-02-17T06:37:01.319Z,80.97
2023-02-17T06:39:27.773Z,86.60
2023-02-17T06:41:54.237Z,83.82
2023-02-17T06:44:20.717Z,80.93
2023-02-17T06:46:47.376Z,81.45
2023-02-17T06:49:14.312Z,81.10
2023-02-17T06:51:40.865Z,76.07
2023-02-17T06:54:07.445Z,75.03
2023-02-17T06:56:33.914Z,76.50
2023-02-17T06:59:01.392Z,73.55
2023-02-17T07:01:27.919Z,80.80
2023-02-17T07:03:55.152Z,77.72
2023-02-17T07:06:23.268Z,72.90
2023-02-17T07:08:49.986Z,71.45
2023-02-17T07:11:16.572Z,73.05
2023-02-17T07:13:43.424Z,70.30
2023-02-17T07:16:10.887Z,72.25
2023-02-17T07:18:40.082Z,71.97
2023-02-17T07:21:07.197Z,74.82
2023-02-17T07:23:33.605Z,69.38
2023-02-17T07:26:04.121Z,72.78
2023-02-17T07:28:31.006Z,68.82
2023-02-17T07:30:57.541Z,70.43
2023-02-17T07:33:24.072Z,72.65
2023-02-17T07:35:50.496Z,72.38
2023-02-17T07:38:16.987Z,65.30
2023-02-17T07:40:43.415Z,67.47
2023-02-17T07:43:09.925Z,66.18
2023-02-17T07:45:36.414Z,63.55
2023-02-17T07:48:03.056Z,67.63
2023-02-17T07:50:29.576Z,62.05
2023-02-17T07:52:56.048Z,62.80
2023-02-17T07:55:22.602Z,63.92
2023-02-17T07:57:49.251Z,58.53
2023-02-17T08:00:16.143Z,54.15
2023-02-17T08:02:42.596Z,53.75
2023-02-17T08:05:09.159Z,51.67
2023-02-17T08:07:35.731Z,50.33
2023-02-17T08:10:20.636Z,51.28
2023-02-17T08:13:05.685Z,50.30
2023-02-17T08:15:32.811Z,45.55
2023-02-17T08:18:00.851Z,42.75
2023-02-17T16:41:41.376Z,22.67
2023-02-17T16:44:08.254Z,19.42
2023-02-17T16:46:36.594Z,17.08
2023-02-17T16:49:04.237Z,16.17
2023-02-17T16:51:30.859Z,15.18
2023-02-17T16:53:57.321Z,14.93
2023-02-17T16:56:30.186Z,14.90
2023-02-17T16:58:56.610Z,18.48
2023-02-17T17:01:24.266Z,18.60
2023-02-17T17:03:50.887Z,23.27
2023-02-17T17:06:17.581Z,21.92
2023-02-17T17:08:44.010Z,19.38
2023-02-17T17:11:14.468Z,22.73
2023-02-17T17:13:40.891Z,22.30
2023-02-17T17:16:19.070Z,22.92
2023-02-17T17:18:45.550Z,20.98
2023-02-17T17:21:12.806Z,26.10
2023-02-17T17:23:39.688Z,21.75
2023-02-17T17:26:18.170Z,22.67
2023-02-17T17:28:44.630Z,36.92
2023-02-17T17:31:11.431Z,27.73
2023-02-17T17:33:37.840Z,26.58
2023-02-17T17:36:11.674Z,183.85
2023-02-17T17:38:38.114Z,216.45
2023-02-17T17:41:04.581Z,247.60
2023-02-17T17:43:31.106Z,149.13
2023-02-17T17:45:57.641Z,77.10
2023-02-17T17:48:24.151Z,91.15
2023-02-17T17:50:50.639Z,130.70
2023-02-17T17:53:17.092Z,134.30
2023-02-17T17:55:43.562Z,213.73
2023-02-17T17:58:10.455Z,216.32
2023-02-17T18:00:36.984Z,319.63
2023-02-17T18:03:04.064Z,377.70
2023-02-17T18:05:30.694Z,188.02
2023-02-17T18:07:57.297Z,139.27
2023-02-17T18:10:23.863Z,92.95
2023-02-17T18:12:50.471Z,83.22
2023-02-17T18:15:17.263Z,70.43
2023-02-17T18:17:44.006Z,68.20
2023-02-17T18:20:11.051Z,71.03
2023-02-17T18:22:37.531Z,56.38
2023-02-17T18:25:04.176Z,53.00
2023-02-17T18:27:36.539Z,51.88
2023-02-17T18:30:03.256Z,50.67
2023-02-17T18:32:29.744Z,68.72
2023-02-17T18:34:58.504Z,58.85
2023-02-17T18:37:25.326Z,50.95
2023-02-17T18:40:21.377Z,45.22
2023-02-17T18:42:48.431Z,42.25
2023-02-17T18:45:15.870Z,43.25
2023-02-17T18:47:43.045Z,40.38
2023-02-17T18:50:10.233Z,42.67
2023-02-17T18:52:40.011Z,48.95
2023-02-17T18:55:06.693Z,49.00
2023-02-17T18:57:33.468Z,42.53
2023-02-17T18:59:59.892Z,44.85
2023-02-17T19:02:26.531Z,41.95
2023-02-17T19:04:53.212Z,42.42
2023-02-17T19:07:20.180Z,39.13
2023-02-17T19:09:46.687Z,37.10
2023-02-17T19:12:16.010Z,35.38
2023-02-17T19:14:42.924Z,33.67
2023-02-17T19:17:10.465Z,32.53
2023-02-17T19:19:37.447Z,33.47
2023-02-17T19:22:08.192Z,37.22
2023-02-17T19:24:35.339Z,37.72
2023-02-17T19:27:01.927Z,41.20
2023-02-17T19:29:28.458Z,52.25
2023-02-17T19:31:56.767Z,47.83
2023-02-17T19:34:23.437Z,61.97
2023-02-17T19:36:49.933Z,60.00
2023-02-17T19:39:16.485Z,45.53
2023-02-17T19:41:42.982Z,42.53
2023-02-17T19:44:10.668Z,40.15
2023-02-17T19:46:37.217Z,48.80
2023-02-17T19:49:05.445Z,62.78
2023-02-17T19:51:32.417Z,51.08
2023-02-17T19:53:59.015Z,53.13
2023-02-17T19:56:26.397Z,53.92
2023-02-17T19:58:53.156Z,51.22
2023-02-17T20:01:20.989Z,41.60
2023-02-17T20:03:47.649Z,35.45
2023-02-17T20:06:18.963Z,33.15
2023-02-17T20:08:46.076Z,38.83
2023-02-17T20:11:12.773Z,41.15
2023-02-17T20:13:45.828Z,39.28
2023-02-17T20:16:13.905Z,40.05
2023-02-17T20:18:41.487Z,43.33
2023-02-17T20:21:08.791Z,40.28
2023-02-17T20:23:35.512Z,41.13
2023-02-17T20:26:06.887Z,42.35
2023-02-17T20:28:33.762Z,47.08
2023-02-17T20:31:00.692Z,44.40
2023-02-17T20:33:27.399Z,52.58
2023-02-17T20:35:53.838Z,41.15
2023-02-17T20:38:20.323Z,38.78
2023-02-17T20:40:46.759Z,36.97
2023-02-17T20:43:13.385Z,35.72
2023-02-17T20:45:40.322Z,36.63
2023-02-17T20:48:06.813Z,92.97
2023-02-17T20:50:33.374Z,52.05
2023-02-17T20:52:59.914Z,50.35
2023-02-17T20:55:27.758Z,46.38
2023-02-17T20:57:54.500Z,44.42
2023-02-17T21:00:22.469Z,43.05
2023-02-17T21:02:49.426Z,36.42
2023-02-17T21:05:15.969Z,34.60
2023-02-17T21:07:42.418Z,34.80
2023-02-17T21:10:09.645Z,34.53
2023-02-17T21:12:36.192Z,33.25
2023-02-17T21:15:02.633Z,42.88
2023-02-17T21:17:29.111Z,42.17
2023-02-17T21:19:55.657Z,36.70
2023-02-17T21:22:22.140Z,36.72
2023-02-17T21:24:48.664Z,36.03
2023-02-17T21:27:15.159Z,34.13
2023-02-17T21:29:41.691Z,31.20
2023-02-17T21:32:08.350Z,33.97
2023-02-17T21:34:38.596Z,32.72
2023-02-17T21:37:05.619Z,31.13
2023-02-17T21:39:32.147Z,34.58
2023-02-17T21:41:58.630Z,29.48
2023-02-17T21:44:43.888Z,32.22
2023-02-17T21:47:10.577Z,33.08
2023-02-17T21:49:37.089Z,40.75
2023-02-17T21:52:03.753Z,37.17
2023-02-17T21:54:30.369Z,36.33
2023-02-17T21:56:56.897Z,34.15
2023-02-17T21:59:23.332Z,34.92
2023-02-17T22:01:51.954Z,33.25
2023-02-17T22:04:18.668Z,35.40
2023-02-17T22:06:45.441Z,32.65
2023-02-17T22:09:12.806Z,31.98
2023-02-17T22:11:40.197Z,28.25
2023-02-17T22:14:12.138Z,33.33
2023-02-17T22:16:38.780Z,31.88
2023-02-17T22:19:06.582Z,31.20
2023-02-17T22:21:33.313Z,31.48
2023-02-17T22:24:01.016Z,30.08
2023-02-17T22:26:27.636Z,25.42
2023-02-17T22:28:54.257Z,25.33
2023-02-17T22:31:21.992Z,23.25
2023-02-17T22:33:49.023Z,24.98
2023-02-17T22:36:17.177Z,22.63
2023-02-17T22:38:43.847Z,21.90
2023-02-17T22:41:14.449Z,23.33
2023-02-17T22:43:41.823Z,23.35
2023-02-17T22:46:09.382Z,23.08
2023-02-17T22:48:37.615Z,25.58
2023-02-17T22:51:05.252Z,22.85
2023-02-17T22:53:31.669Z,21.60
2023-02-17T22:55:58.229Z,23.73
2023-02-17T22:58:26.139Z,22.70
2023-02-17T23:01:01.607Z,21.80
2023-02-17T23:03:28.287Z,21.55
2023-02-17T23:05:59.114Z,22.13
2023-02-17T23:08:26.217Z,22.63
2023-02-17T23:10:52.725Z,19.48
2023-02-17T23:13:19.308Z,21.95
2023-02-17T23:15:45.876Z,20.10
2023-02-17T23:18:13.767Z,19.17
2023-02-17T23:20:41.110Z,18.98
2023-02-17T23:23:07.557Z,18.15
2023-02-17T23:25:34.342Z,20.10
2023-02-17T23:28:01.191Z,17.45
2023-02-17T23:30:27.860Z,18.00
2023-02-17T23:32:54.595Z,19.95
2023-02-17T23:35:21.229Z,19.20
2023-02-17T23:37:49.663Z,21.77
2023-02-17T23:40:16.350Z,21.02
2023-02-17T23:42:43.109Z,21.58
2023-02-17T23:45:09.729Z,23.58
2023-02-17T23:47:36.224Z,23.98
2023-02-17T23:50:04.624Z,61.72
2023-02-17T23:52:31.168Z,53.92
2023-02-17T23:54:57.766Z,47.28
2023-02-17T23:57:24.230Z,35.67
2023-02-17T23:59:50.727Z,31.17
